createdAt,value
2018-11-12T00:00:17.208Z,989.57
2018-11-12T00:01:17.441Z,989.58
2018-11-12T00:02:17.667Z,989.60
2018-11-12T00:03:17.891Z,989.63
2018-11-12T00:04:18.117Z,989.61
2018-11-12T00:05:18.348Z,989.66
2018-11-12T00:06:18.571Z,989.70
2018-11-12T00:07:18.797Z,989.72
2018-11-12T00:08:19.021Z,989.69
2018-11-12T00:09:19.246Z,989.66
2018-11-12T00:10:19.474Z,989.68
2018-11-12T00:11:19.699Z,989.68
2018-11-12T00:12:19.934Z,989.72
2018-11-12T00:13:20.153Z,989.71
2018-11-12T00:14:20.378Z,989.68
2018-11-12T00:15:20.601Z,989.61
2018-11-12T00:16:20.827Z,989.63
2018-11-12T00:17:21.054Z,989.61
2018-11-12T00:18:21.279Z,989.55
2018-11-12T00:19:21.511Z,989.60
2018-11-12T00:20:21.736Z,989.58
2018-11-12T00:21:21.962Z,989.56
2018-11-12T00:22:22.190Z,989.51
2018-11-12T00:23:22.415Z,989.50
2018-11-12T00:24:22.644Z,989.50
2018-11-12T00:25:22.871Z,989.47
2018-11-12T00:26:23.100Z,989.44
2018-11-12T00:27:23.326Z,989.44
2018-11-12T00:28:23.556Z,989.52
2018-11-12T00:29:23.776Z,989.56
2018-11-12T00:30:24.005Z,989.57
2018-11-12T00:31:24.234Z,989.52
2018-11-12T00:32:24.463Z,989.51
2018-11-12T00:33:24.687Z,989.52
2018-11-12T00:34:24.919Z,989.52
2018-11-12T00:35:25.152Z,989.56
2018-11-12T00:36:25.372Z,989.60
2018-11-12T00:37:25.589Z,989.58
2018-11-12T00:38:25.818Z,989.62
2018-11-12T00:39:26.043Z,989.56
2018-11-12T00:40:26.270Z,989.56
2018-11-12T00:41:26.498Z,989.59
2018-11-12T00:42:26.738Z,989.61
2018-11-12T00:43:26.949Z,989.62
2018-11-12T00:44:27.174Z,989.67
2018-11-12T00:45:27.402Z,989.68
2018-11-12T00:46:27.630Z,989.67
2018-11-12T00:47:27.858Z,989.66
2018-11-12T00:48:28.085Z,989.67
2018-11-12T00:49:28.310Z,989.66
2018-11-12T00:50:28.538Z,989.65
2018-11-12T00:51:28.768Z,989.68
2018-11-12T00:52:28.990Z,989.72
2018-11-12T00:53:29.216Z,989.70
2018-11-12T00:54:29.449Z,989.67
2018-11-12T00:55:29.675Z,989.62
2018-11-12T00:56:29.901Z,989.60
2018-11-12T00:57:30.128Z,989.60
2018-11-12T00:58:30.359Z,989.62
2018-11-12T00:59:30.585Z,989.62
2018-11-12T01:00:30.865Z,989.64
2018-11-12T01:01:31.096Z,989.69
2018-11-12T01:02:31.321Z,989.65
2018-11-12T01:03:31.548Z,989.72
2018-11-12T01:04:31.776Z,989.75
2018-11-12T01:05:32.003Z,989.79
2018-11-12T01:06:32.232Z,989.77
2018-11-12T01:07:32.457Z,989.76
2018-11-12T01:08:32.685Z,989.76
2018-11-12T01:09:32.912Z,989.77
2018-11-12T01:10:33.137Z,989.75
2018-11-12T01:11:33.363Z,989.76
2018-11-12T01:12:33.586Z,989.77
2018-11-12T01:13:33.816Z,989.85
2018-11-12T01:14:34.044Z,989.86
2018-11-12T01:15:34.268Z,989.88
2018-11-12T01:16:34.506Z,989.90
2018-11-12T01:17:34.726Z,989.91
2018-11-12T01:18:34.973Z,989.92
2018-11-12T01:19:35.166Z,989.91
2018-11-12T01:20:35.393Z,989.89
2018-11-12T01:21:35.620Z,989.93
2018-11-12T01:22:35.843Z,989.93
2018-11-12T01:23:36.073Z,989.91
2018-11-12T01:24:36.302Z,989.96
2018-11-12T01:25:36.525Z,989.92
2018-11-12T01:26:36.753Z,989.91
2018-11-12T01:27:36.993Z,989.91
2018-11-12T01:28:37.212Z,989.93
2018-11-12T01:29:37.428Z,989.90
2018-11-12T01:30:37.654Z,989.90
2018-11-12T01:31:37.881Z,989.88
2018-11-12T01:32:38.113Z,989.81
2018-11-12T01:33:38.341Z,989.83
2018-11-12T01:34:38.563Z,989.83
2018-11-12T01:35:38.790Z,989.80
2018-11-12T01:36:39.015Z,989.76
2018-11-12T01:37:39.242Z,989.77
2018-11-12T01:38:39.469Z,989.71
2018-11-12T01:39:39.695Z,989.77
2018-11-12T01:40:39.923Z,989.78
2018-11-12T01:41:40.153Z,989.79
2018-11-12T01:42:40.375Z,989.81
2018-11-12T01:43:40.601Z,989.80
2018-11-12T01:44:40.826Z,989.82
2018-11-12T01:45:41.052Z,989.81
2018-11-12T01:46:41.276Z,989.77
2018-11-12T01:47:41.503Z,989.80
2018-11-12T01:48:41.729Z,989.75
2018-11-12T01:49:41.954Z,989.76
2018-11-12T01:50:42.181Z,989.76
2018-11-12T01:51:42.407Z,989.71
2018-11-12T01:52:42.633Z,989.69
2018-11-12T01:53:42.856Z,989.67
2018-11-12T01:54:43.083Z,989.72
2018-11-12T01:55:43.312Z,989.72
2018-11-12T01:56:43.545Z,989.77
2018-11-12T01:57:43.764Z,989.78
2018-11-12T01:58:43.993Z,989.70
2018-11-12T01:59:44.221Z,989.69
2018-11-12T02:00:44.447Z,989.69
2018-11-12T02:01:44.743Z,989.68
2018-11-12T02:02:44.898Z,989.68
2018-11-12T02:03:45.124Z,989.68
2018-11-12T02:04:45.429Z,989.68
2018-11-12T02:05:45.576Z,989.65
2018-11-12T02:06:45.803Z,989.64
2018-11-12T02:07:46.030Z,989.65
2018-11-12T02:08:46.340Z,989.66
2018-11-12T02:09:46.485Z,989.68
2018-11-12T02:10:46.710Z,989.68
2018-11-12T02:11:46.937Z,989.64
2018-11-12T02:12:47.164Z,989.62
2018-11-12T02:13:47.391Z,989.63
2018-11-12T02:14:47.620Z,989.66
2018-11-12T02:15:47.846Z,989.68
2018-11-12T02:16:48.073Z,989.71
2018-11-12T02:17:48.305Z,989.69
2018-11-12T02:18:48.530Z,989.69
2018-11-12T02:19:48.757Z,989.67
2018-11-12T02:20:48.980Z,989.71
2018-11-12T02:21:49.200Z,989.74
2018-11-12T02:22:49.504Z,989.72
2018-11-12T02:23:49.650Z,989.71
2018-11-12T02:24:49.878Z,989.73
2018-11-12T02:25:50.106Z,989.67
2018-11-12T02:26:50.330Z,989.68
2018-11-12T02:27:50.560Z,989.67
2018-11-12T02:28:50.786Z,989.64
2018-11-12T02:29:51.013Z,989.65
2018-11-12T02:30:51.238Z,989.61
2018-11-12T02:31:51.466Z,989.58
2018-11-12T02:32:51.696Z,989.56
2018-11-12T02:33:51.919Z,989.53
2018-11-12T02:34:52.145Z,989.53
2018-11-12T02:35:52.370Z,989.54
2018-11-12T02:36:52.602Z,989.53
2018-11-12T02:37:52.821Z,989.58
2018-11-12T02:38:53.046Z,989.61
2018-11-12T02:39:53.266Z,989.64
2018-11-12T02:40:53.490Z,989.61
2018-11-12T02:41:53.718Z,989.60
2018-11-12T02:42:53.941Z,989.63
2018-11-12T02:43:54.164Z,989.60
2018-11-12T02:44:54.385Z,989.66
2018-11-12T02:45:54.625Z,989.62
2018-11-12T02:46:54.853Z,989.58
2018-11-12T02:47:55.080Z,989.61
2018-11-12T02:48:55.308Z,989.64
2018-11-12T02:49:55.540Z,989.65
2018-11-12T02:50:55.767Z,989.66
2018-11-12T02:51:55.994Z,989.63
2018-11-12T02:52:56.222Z,989.60
2018-11-12T02:53:56.447Z,989.57
2018-11-12T02:54:56.672Z,989.58
2018-11-12T02:55:56.895Z,989.55
2018-11-12T02:56:57.121Z,989.50
2018-11-12T02:57:57.349Z,989.49
2018-11-12T02:58:57.579Z,989.45
2018-11-12T02:59:57.803Z,989.50
2018-11-12T03:00:58.026Z,989.44
2018-11-12T03:01:58.254Z,989.41
2018-11-12T03:02:58.479Z,989.42
2018-11-12T03:03:58.702Z,989.43
2018-11-12T03:04:58.934Z,989.36
2018-11-12T03:05:59.159Z,989.43
2018-11-12T03:06:59.384Z,989.42
2018-11-12T03:07:59.611Z,989.44
2018-11-12T03:08:59.834Z,989.46
2018-11-12T03:10:00.061Z,989.49
2018-11-12T03:11:00.287Z,989.45
2018-11-12T03:12:00.515Z,989.44
2018-11-12T03:13:00.738Z,989.47
2018-11-12T03:14:00.965Z,989.44
2018-11-12T03:15:01.199Z,989.44
2018-11-12T03:16:01.425Z,989.45
2018-11-12T03:17:01.643Z,989.44
2018-11-12T03:18:01.873Z,989.48
2018-11-12T03:19:02.104Z,989.51
2018-11-12T03:20:02.323Z,989.48
2018-11-12T03:21:02.545Z,989.47
2018-11-12T03:22:02.774Z,989.45
2018-11-12T03:23:03.004Z,989.48
2018-11-12T03:24:03.227Z,989.45
2018-11-12T03:25:03.451Z,989.44
2018-11-12T03:26:03.678Z,989.41
2018-11-12T03:27:03.917Z,989.40
2018-11-12T03:28:04.142Z,989.41
2018-11-12T03:29:04.360Z,989.38
2018-11-12T03:30:04.591Z,989.43
2018-11-12T03:31:04.815Z,989.40
2018-11-12T03:32:05.054Z,989.37
2018-11-12T03:33:05.274Z,989.36
2018-11-12T03:34:05.501Z,989.27
2018-11-12T03:35:05.741Z,989.29
2018-11-12T03:36:05.953Z,989.34
2018-11-12T03:37:06.180Z,989.38
2018-11-12T03:38:06.402Z,989.36
2018-11-12T03:39:06.631Z,989.30
2018-11-12T03:40:06.857Z,989.36
2018-11-12T03:41:07.085Z,989.36
2018-11-12T03:42:07.354Z,989.29
2018-11-12T03:43:07.535Z,989.24
2018-11-12T03:44:07.763Z,989.26
2018-11-12T03:45:07.991Z,989.22
2018-11-12T03:46:08.218Z,989.23
2018-11-12T03:47:08.445Z,989.20
2018-11-12T03:48:08.674Z,989.23
2018-11-12T03:49:08.909Z,989.21
2018-11-12T03:50:09.133Z,989.22
2018-11-12T03:51:09.353Z,989.29
2018-11-12T03:52:09.578Z,989.34
2018-11-12T03:53:09.839Z,989.31
2018-11-12T03:54:10.033Z,989.34
2018-11-12T03:55:10.270Z,989.34
2018-11-12T03:56:10.487Z,989.29
2018-11-12T03:57:10.714Z,989.27
2018-11-12T03:58:10.940Z,989.28
2018-11-12T03:59:11.171Z,989.29
2018-11-12T04:00:11.469Z,989.30
2018-11-12T04:01:11.625Z,989.32
2018-11-12T04:02:11.850Z,989.32
2018-11-12T04:03:12.079Z,989.37
2018-11-12T04:04:12.308Z,989.36
2018-11-12T04:05:12.538Z,989.38
2018-11-12T04:06:12.762Z,989.41
2018-11-12T04:07:12.996Z,989.41
2018-11-12T04:08:13.218Z,989.38
2018-11-12T04:09:13.448Z,989.36
2018-11-12T04:10:13.676Z,989.37
2018-11-12T04:11:13.905Z,989.39
2018-11-12T04:12:14.130Z,989.38
2018-11-12T04:13:14.357Z,989.38
2018-11-12T04:14:14.586Z,989.39
2018-11-12T04:15:14.810Z,989.33
2018-11-12T04:16:15.041Z,989.35
2018-11-12T04:17:15.266Z,989.29
2018-11-12T04:18:15.495Z,989.30
2018-11-12T04:19:15.720Z,989.29
2018-11-12T04:20:15.948Z,989.30
2018-11-12T04:21:16.175Z,989.28
2018-11-12T04:22:16.401Z,989.30
2018-11-12T04:23:16.627Z,989.22
2018-11-12T04:24:16.856Z,989.26
2018-11-12T04:25:17.075Z,989.25
2018-11-12T04:26:17.308Z,989.23
2018-11-12T04:27:17.538Z,989.24
2018-11-12T04:28:17.761Z,989.18
2018-11-12T04:29:17.989Z,989.18
2018-11-12T04:30:18.215Z,989.22
2018-11-12T04:31:18.441Z,989.23
2018-11-12T04:32:18.671Z,989.23
2018-11-12T04:33:18.898Z,989.27
2018-11-12T04:34:19.125Z,989.24
2018-11-12T04:35:19.353Z,989.26
2018-11-12T04:36:19.579Z,989.23
2018-11-12T04:37:19.807Z,989.28
2018-11-12T04:38:20.033Z,989.34
2018-11-12T04:39:20.262Z,989.33
2018-11-12T04:40:20.488Z,989.28
2018-11-12T04:41:20.714Z,989.27
2018-11-12T04:42:20.946Z,989.27
2018-11-12T04:43:21.175Z,989.26
2018-11-12T04:44:21.399Z,989.33
2018-11-12T04:45:21.643Z,989.32
2018-11-12T04:46:21.853Z,989.28
2018-11-12T04:47:22.083Z,989.25
2018-11-12T04:48:22.308Z,989.24
2018-11-12T04:49:22.530Z,989.25
2018-11-12T04:50:22.761Z,989.20
2018-11-12T04:51:22.984Z,989.20
2018-11-12T04:52:23.211Z,989.18
2018-11-12T04:53:23.437Z,989.21
2018-11-12T04:54:23.671Z,989.19
2018-11-12T04:55:23.990Z,989.23
2018-11-12T04:56:24.114Z,989.23
2018-11-12T04:57:24.338Z,989.32
2018-11-12T04:58:24.560Z,989.28
2018-11-12T04:59:24.790Z,989.28
2018-11-12T05:00:25.015Z,989.28
2018-11-12T05:01:25.243Z,989.26
2018-11-12T05:02:25.468Z,989.22
2018-11-12T05:03:25.686Z,989.23
2018-11-12T05:04:25.918Z,989.24
2018-11-12T05:05:26.180Z,989.27
2018-11-12T05:06:26.364Z,989.29
2018-11-12T05:07:26.648Z,989.27
2018-11-12T05:08:26.825Z,989.25
2018-11-12T05:09:27.051Z,989.32
2018-11-12T05:10:27.275Z,989.31
2018-11-12T05:11:27.502Z,989.32
2018-11-12T05:12:27.728Z,989.31
2018-11-12T05:13:27.954Z,989.35
2018-11-12T05:14:28.186Z,989.37
2018-11-12T05:15:28.413Z,989.38
2018-11-12T05:16:28.676Z,989.39
2018-11-12T05:17:28.869Z,989.42
2018-11-12T05:18:29.098Z,989.47
2018-11-12T05:19:29.327Z,989.46
2018-11-12T05:20:29.552Z,989.48
2018-11-12T05:21:29.781Z,989.49
2018-11-12T05:22:30.010Z,989.53
2018-11-12T05:23:30.234Z,989.46
2018-11-12T05:24:30.460Z,989.43
2018-11-12T05:25:30.687Z,989.42
2018-11-12T05:26:30.915Z,989.48
2018-11-12T05:27:31.145Z,989.45
2018-11-12T05:28:31.374Z,989.47
2018-11-12T05:29:31.597Z,989.50
2018-11-12T05:30:31.825Z,989.52
2018-11-12T05:31:32.055Z,989.53
2018-11-12T05:32:32.278Z,989.50
2018-11-12T05:33:32.504Z,989.51
2018-11-12T05:34:32.732Z,989.45
2018-11-12T05:35:32.967Z,989.46
2018-11-12T05:36:33.182Z,989.47
2018-11-12T05:37:33.447Z,989.43
2018-11-12T05:38:33.635Z,989.45
2018-11-12T05:39:33.864Z,989.37
2018-11-12T05:40:34.090Z,989.40
2018-11-12T05:41:34.314Z,989.35
2018-11-12T05:42:34.542Z,989.35
2018-11-12T05:43:34.769Z,989.35
2018-11-12T05:44:34.998Z,989.26
2018-11-12T05:45:35.226Z,989.27
2018-11-12T05:46:35.448Z,989.23
2018-11-12T05:47:35.681Z,989.25
2018-11-12T05:48:35.908Z,989.23
2018-11-12T05:49:36.137Z,989.20
2018-11-12T05:50:36.365Z,989.21
2018-11-12T05:51:36.604Z,989.19
2018-11-12T05:52:36.814Z,989.19
2018-11-12T05:53:37.038Z,989.19
2018-11-12T05:54:37.265Z,989.21
2018-11-12T05:55:37.493Z,989.18
2018-11-12T05:56:37.724Z,989.15
2018-11-12T05:57:37.948Z,989.16
2018-11-12T05:58:38.174Z,989.13
2018-11-12T05:59:38.399Z,989.16
2018-11-12T06:00:38.628Z,989.20
2018-11-12T06:01:38.855Z,989.21
2018-11-12T06:02:39.083Z,989.24
2018-11-12T06:03:39.308Z,989.22
2018-11-12T06:04:39.552Z,989.17
2018-11-12T06:05:39.767Z,989.18
2018-11-12T06:06:39.994Z,989.17
2018-11-12T06:07:40.224Z,989.13
2018-11-12T06:08:40.447Z,989.15
2018-11-12T06:09:40.677Z,989.12
2018-11-12T06:10:40.902Z,989.19
2018-11-12T06:11:41.127Z,989.15
2018-11-12T06:12:41.357Z,989.18
2018-11-12T06:13:41.581Z,989.17
2018-11-12T06:14:41.808Z,989.20
2018-11-12T06:15:42.037Z,989.23
2018-11-12T06:16:42.278Z,989.22
2018-11-12T06:17:42.491Z,989.22
2018-11-12T06:18:42.721Z,989.27
2018-11-12T06:19:42.949Z,989.24
2018-11-12T06:20:43.176Z,989.24
2018-11-12T06:21:43.401Z,989.21
2018-11-12T06:22:43.683Z,989.23
2018-11-12T06:23:43.854Z,989.22
2018-11-12T06:24:44.080Z,989.29
2018-11-12T06:25:44.308Z,989.23
2018-11-12T06:26:44.533Z,989.26
2018-11-12T06:27:44.762Z,989.28
2018-11-12T06:28:44.990Z,989.27
2018-11-12T06:29:45.214Z,989.28
2018-11-12T06:30:45.437Z,989.26
2018-11-12T06:31:45.666Z,989.30
2018-11-12T06:32:45.948Z,989.31
2018-11-12T06:33:46.119Z,989.29
2018-11-12T06:34:46.344Z,989.31
2018-11-12T06:35:46.572Z,989.28
2018-11-12T06:36:46.855Z,989.30
2018-11-12T06:37:47.027Z,989.32
2018-11-12T06:38:47.258Z,989.29
2018-11-12T06:39:47.471Z,989.30
2018-11-12T06:40:47.701Z,989.30
2018-11-12T06:41:47.926Z,989.33
2018-11-12T06:42:48.283Z,989.33
2018-11-12T06:43:48.380Z,989.32
2018-11-12T06:44:48.610Z,989.29
2018-11-12T06:45:48.837Z,989.35
2018-11-12T06:46:49.064Z,989.37
2018-11-12T06:47:49.291Z,989.39
2018-11-12T06:48:49.521Z,989.40
2018-11-12T06:49:49.746Z,989.47
2018-11-12T06:50:49.980Z,989.45
2018-11-12T06:51:50.219Z,989.43
2018-11-12T06:52:50.474Z,989.46
2018-11-12T06:53:50.648Z,989.45
2018-11-12T06:54:50.871Z,989.49
2018-11-12T06:55:51.097Z,989.47
2018-11-12T06:56:51.324Z,989.45
2018-11-12T06:57:51.551Z,989.43
2018-11-12T06:58:51.780Z,989.43
2018-11-12T06:59:52.004Z,989.43
2018-11-12T07:00:52.252Z,989.39
2018-11-12T07:01:52.454Z,989.43
2018-11-12T07:02:52.681Z,989.40
2018-11-12T07:03:52.911Z,989.37
2018-11-12T07:04:53.135Z,989.39
2018-11-12T07:05:53.362Z,989.38
2018-11-12T07:06:53.633Z,989.34
2018-11-12T07:07:53.815Z,989.34
2018-11-12T07:08:54.045Z,989.30
2018-11-12T07:09:54.274Z,989.30
2018-11-12T07:10:54.501Z,989.27
2018-11-12T07:11:54.731Z,989.34
2018-11-12T07:12:54.954Z,989.31
2018-11-12T07:13:55.180Z,989.36
2018-11-12T07:14:55.407Z,989.38
2018-11-12T07:15:55.640Z,989.39
2018-11-12T07:16:55.871Z,989.38
2018-11-12T07:17:56.100Z,989.44
2018-11-12T07:18:56.380Z,989.39
2018-11-12T07:19:56.547Z,989.42
2018-11-12T07:20:56.775Z,989.45
2018-11-12T07:21:57.003Z,989.50
2018-11-12T07:22:57.228Z,989.49
2018-11-12T07:23:57.456Z,989.54
2018-11-12T07:24:57.730Z,989.53
2018-11-12T07:25:57.912Z,989.55
2018-11-12T07:26:58.131Z,989.60
2018-11-12T07:27:58.361Z,989.62
2018-11-12T07:28:58.596Z,989.62
2018-11-12T07:29:58.812Z,989.58
2018-11-12T07:30:59.104Z,989.57
2018-11-12T07:31:59.269Z,989.63
2018-11-12T07:32:59.493Z,989.61
2018-11-12T07:33:59.718Z,989.66
2018-11-12T07:34:59.946Z,989.69
2018-11-12T07:36:00.171Z,989.70
2018-11-12T07:37:00.399Z,989.75
2018-11-12T07:38:00.630Z,989.70
2018-11-12T07:39:00.853Z,989.75
2018-11-12T07:40:01.078Z,989.74
2018-11-12T07:41:01.308Z,989.72
2018-11-12T07:42:01.577Z,989.70
2018-11-12T07:43:01.764Z,989.72
2018-11-12T07:44:01.993Z,989.73
2018-11-12T07:45:02.221Z,989.72
2018-11-12T07:46:02.448Z,989.64
2018-11-12T07:47:02.685Z,989.71
2018-11-12T07:48:02.893Z,989.73
2018-11-12T07:49:03.121Z,989.72
2018-11-12T07:50:03.358Z,989.71
2018-11-12T07:51:03.576Z,989.71
2018-11-12T07:52:03.801Z,989.73
2018-11-12T07:53:04.027Z,989.71
2018-11-12T07:54:04.254Z,989.70
2018-11-12T07:55:04.481Z,989.72
2018-11-12T07:56:04.713Z,989.72
2018-11-12T07:57:04.936Z,989.73
2018-11-12T07:58:05.164Z,989.72
2018-11-12T07:59:05.391Z,989.71
2018-11-12T08:00:05.627Z,989.69
2018-11-12T08:01:05.839Z,989.76
2018-11-12T08:02:06.065Z,989.72
2018-11-12T08:03:06.377Z,989.74
2018-11-12T08:04:06.520Z,989.78
2018-11-12T08:05:06.746Z,989.77
2018-11-12T08:06:06.971Z,989.81
2018-11-12T08:07:07.199Z,989.82
2018-11-12T08:08:07.428Z,989.80
2018-11-12T08:09:07.737Z,989.76
2018-11-12T08:10:07.884Z,989.73
2018-11-12T08:11:08.113Z,989.77
2018-11-12T08:12:08.341Z,989.78
2018-11-12T08:13:08.578Z,989.75
2018-11-12T08:14:08.805Z,989.78
2018-11-12T08:15:09.026Z,989.78
2018-11-12T08:16:09.252Z,989.76
2018-11-12T08:17:09.481Z,989.77
2018-11-12T08:18:09.707Z,989.77
2018-11-12T08:19:09.942Z,989.75
2018-11-12T08:20:10.158Z,989.83
2018-11-12T08:21:10.384Z,989.84
2018-11-12T08:22:10.612Z,989.82
2018-11-12T08:23:10.847Z,989.84
2018-11-12T08:24:11.153Z,989.84
2018-11-12T08:25:11.298Z,989.89
2018-11-12T08:26:11.532Z,989.87
2018-11-12T08:27:11.782Z,989.89
2018-11-12T08:28:11.985Z,989.93
2018-11-12T08:29:12.217Z,989.88
2018-11-12T08:30:12.512Z,989.90
2018-11-12T08:31:12.674Z,989.92
2018-11-12T08:32:12.904Z,989.89
2018-11-12T08:33:13.254Z,989.93
2018-11-12T08:34:13.354Z,989.87
2018-11-12T08:35:13.587Z,989.88
2018-11-12T08:36:13.886Z,989.94
2018-11-12T08:37:14.040Z,989.88
2018-11-12T08:38:14.273Z,989.89
2018-11-12T08:39:14.534Z,989.90
2018-11-12T08:40:14.751Z,989.95
2018-11-12T08:41:15.057Z,989.98
2018-11-12T08:42:15.172Z,990.00
2018-11-12T08:43:15.402Z,989.98
2018-11-12T08:44:15.626Z,989.96
2018-11-12T08:45:15.849Z,989.91
2018-11-12T08:46:16.161Z,989.90
2018-11-12T08:47:16.305Z,989.91
2018-11-12T08:48:16.559Z,989.94
2018-11-12T08:49:16.796Z,989.92
2018-11-12T08:50:16.992Z,989.95
2018-11-12T08:51:17.221Z,989.96
2018-11-12T08:52:17.466Z,990.01
2018-11-12T08:53:17.674Z,990.04
2018-11-12T08:54:17.956Z,990.01
2018-11-12T08:55:18.190Z,990.04
2018-11-12T08:56:18.358Z,990.01
2018-11-12T08:57:18.585Z,989.95
2018-11-12T08:58:19.504Z,989.98
2018-11-12T08:59:19.164Z,989.92
2018-11-12T09:00:19.270Z,989.93
2018-11-12T09:01:19.496Z,989.96
2018-11-12T09:02:19.724Z,989.95
2018-11-12T09:03:19.955Z,989.93
2018-11-12T09:04:20.183Z,989.91
2018-11-12T09:05:20.403Z,989.92
2018-11-12T09:06:20.630Z,989.95
2018-11-12T09:07:20.927Z,989.95
2018-11-12T09:08:21.088Z,989.96
2018-11-12T09:09:21.317Z,989.95
2018-11-12T09:10:21.545Z,989.97
2018-11-12T09:11:21.772Z,989.99
2018-11-12T09:12:21.998Z,989.97
2018-11-12T09:13:22.223Z,989.95
2018-11-12T09:14:22.450Z,989.97
2018-11-12T09:15:22.678Z,989.95
2018-11-12T09:16:22.906Z,989.95
2018-11-12T09:17:23.134Z,989.94
2018-11-12T09:18:23.364Z,989.90
2018-11-12T09:19:23.593Z,989.83
2018-11-12T09:20:23.824Z,989.82
2018-11-12T09:21:24.050Z,989.79
2018-11-12T09:22:24.280Z,989.80
2018-11-12T09:23:24.510Z,989.86
2018-11-12T09:24:24.757Z,989.84
2018-11-12T09:25:24.962Z,989.93
2018-11-12T09:26:25.188Z,989.92
2018-11-12T09:27:25.414Z,989.96
2018-11-12T09:28:25.644Z,989.96
2018-11-12T09:29:25.970Z,989.98
2018-11-12T09:30:26.105Z,989.95
2018-11-12T09:31:27.343Z,989.93
2018-11-12T09:32:26.563Z,989.92
2018-11-12T09:33:26.786Z,989.93
2018-11-12T09:34:27.014Z,989.93
2018-11-12T09:35:27.254Z,989.95
2018-11-12T09:36:27.505Z,989.90
2018-11-12T09:37:27.758Z,989.90
2018-11-12T09:38:27.966Z,989.93
2018-11-12T09:39:28.186Z,989.93
2018-11-12T09:40:28.389Z,989.95
2018-11-12T09:41:28.659Z,989.96
2018-11-12T09:42:28.892Z,989.96
2018-11-12T09:43:29.074Z,989.96
2018-11-12T09:44:29.304Z,989.97
2018-11-12T09:45:29.531Z,989.98
2018-11-12T09:46:29.761Z,990.00
2018-11-12T09:47:29.988Z,990.03
2018-11-12T09:48:30.220Z,990.03
2018-11-12T09:49:30.446Z,990.08
2018-11-12T09:50:30.669Z,990.07
2018-11-12T09:51:30.896Z,990.08
2018-11-12T09:52:31.125Z,990.15
2018-11-12T09:53:31.367Z,990.15
2018-11-12T09:54:31.702Z,990.10
2018-11-12T09:55:31.810Z,990.13
2018-11-12T09:56:32.040Z,990.11
2018-11-12T09:57:32.263Z,990.13
2018-11-12T09:58:32.501Z,990.14
2018-11-12T09:59:32.772Z,990.12
2018-11-12T10:00:33.149Z,990.12
2018-11-12T10:01:33.816Z,990.14
2018-11-12T10:02:34.293Z,990.10
2018-11-12T10:03:34.743Z,990.11
2018-11-12T10:04:34.179Z,990.15
2018-11-12T10:05:35.220Z,990.16
2018-11-12T10:06:35.898Z,990.19
2018-11-12T10:07:35.818Z,990.18
2018-11-12T10:08:36.640Z,990.14
2018-11-12T10:09:35.807Z,990.13
2018-11-12T10:10:37.542Z,990.06
2018-11-12T10:11:37.300Z,990.10
2018-11-12T10:12:38.530Z,990.12
2018-11-12T10:13:39.171Z,990.13
2018-11-12T10:14:38.780Z,990.16
2018-11-12T10:15:39.260Z,990.15
2018-11-12T10:16:39.163Z,990.14
2018-11-12T10:17:40.373Z,990.18
2018-11-12T10:18:37.054Z,990.16
2018-11-12T10:19:37.317Z,990.17
2018-11-12T10:20:37.514Z,990.20
2018-11-12T10:21:37.732Z,990.22
2018-11-12T10:22:37.956Z,990.23
2018-11-12T10:23:38.180Z,990.24
2018-11-12T10:24:38.417Z,990.19
2018-11-12T10:25:38.646Z,990.18
2018-11-12T10:26:38.877Z,990.27
2018-11-12T10:27:39.105Z,990.23
2018-11-12T10:28:39.331Z,990.23
2018-11-12T10:29:39.558Z,990.19
2018-11-12T10:30:39.789Z,990.20
2018-11-12T10:31:40.017Z,990.17
2018-11-12T10:32:40.247Z,990.11
2018-11-12T10:33:40.475Z,990.14
2018-11-12T10:34:40.704Z,990.11
2018-11-12T10:35:40.936Z,990.11
2018-11-12T10:36:41.161Z,990.06
2018-11-12T10:37:41.388Z,990.08
2018-11-12T10:38:41.616Z,990.16
2018-11-12T10:39:42.660Z,990.17
2018-11-12T10:40:42.145Z,990.21
2018-11-12T10:41:42.341Z,990.20
2018-11-12T10:42:42.606Z,990.19
2018-11-12T10:43:42.801Z,990.18
2018-11-12T10:44:43.032Z,990.18
2018-11-12T10:45:43.259Z,990.26
2018-11-12T10:46:43.488Z,990.25
2018-11-12T10:47:43.730Z,990.26
2018-11-12T10:48:43.948Z,990.27
2018-11-12T10:49:44.175Z,990.31
2018-11-12T10:50:44.400Z,990.30
2018-11-12T10:51:44.630Z,990.27
2018-11-12T10:52:44.861Z,990.28
2018-11-12T10:53:50.045Z,990.29
2018-11-12T10:54:45.412Z,990.23
2018-11-12T10:55:45.850Z,990.23
2018-11-12T10:56:45.767Z,990.30
2018-11-12T10:57:45.997Z,990.32
2018-11-12T10:58:46.226Z,990.28
2018-11-12T10:59:46.503Z,990.30
2018-11-12T11:00:46.694Z,990.27
2018-11-12T11:01:46.918Z,990.29
2018-11-12T11:02:47.151Z,990.26
2018-11-12T11:03:47.375Z,990.28
2018-11-12T11:04:47.602Z,990.27
2018-11-12T11:05:47.831Z,990.27
2018-11-12T11:06:48.053Z,990.31
2018-11-12T11:07:48.283Z,990.32
2018-11-12T11:08:48.515Z,990.24
2018-11-12T11:09:48.739Z,990.27
2018-11-12T11:10:48.958Z,990.24
2018-11-12T11:11:49.188Z,990.23
2018-11-12T11:12:49.415Z,990.22
2018-11-12T11:13:49.710Z,990.18
2018-11-12T11:14:49.872Z,990.20
2018-11-12T11:15:50.123Z,990.17
2018-11-12T11:16:50.331Z,990.16
2018-11-12T11:17:50.563Z,990.09
2018-11-12T11:18:50.790Z,990.06
2018-11-12T11:19:51.119Z,990.09
2018-11-12T11:20:51.249Z,990.12
2018-11-12T11:21:51.477Z,990.13
2018-11-12T11:22:51.705Z,990.04
2018-11-12T11:23:51.937Z,990.08
2018-11-12T11:24:52.163Z,990.09
2018-11-12T11:25:52.391Z,990.05
2018-11-12T11:26:52.622Z,990.07
2018-11-12T11:27:52.850Z,990.10
2018-11-12T11:28:53.079Z,990.03
2018-11-12T11:29:53.309Z,990.02
2018-11-12T11:30:53.542Z,990.02
2018-11-12T11:31:53.826Z,990.01
2018-11-12T11:32:53.995Z,990.04
2018-11-12T11:33:54.221Z,989.96
2018-11-12T11:34:54.451Z,989.92
2018-11-12T11:35:54.679Z,989.93
2018-11-12T11:36:54.906Z,989.94
2018-11-12T11:37:55.156Z,989.95
2018-11-12T11:38:55.366Z,989.90
2018-11-12T11:39:55.595Z,989.95
2018-11-12T11:40:55.927Z,989.96
2018-11-12T11:41:56.054Z,989.96
2018-11-12T11:42:56.280Z,989.96
2018-11-12T11:43:56.520Z,989.99
2018-11-12T11:44:56.738Z,989.97
2018-11-12T11:45:56.962Z,989.94
2018-11-12T11:46:57.195Z,990.05
2018-11-12T11:47:57.547Z,989.98
2018-11-12T11:48:57.783Z,989.97
2018-11-12T11:49:57.888Z,989.96
2018-11-12T11:50:58.108Z,989.96
2018-11-12T11:51:58.356Z,989.94
2018-11-12T11:52:58.588Z,989.96
2018-11-12T11:53:58.796Z,989.95
2018-11-12T11:54:59.016Z,989.99
2018-11-12T11:55:59.245Z,990.00
2018-11-12T11:56:59.497Z,989.99
2018-11-12T11:57:59.706Z,990.01
2018-11-12T11:58:59.934Z,990.07
2018-11-12T12:00:00.171Z,990.07
2018-11-12T12:01:00.434Z,990.03
2018-11-12T12:02:00.623Z,990.08
2018-11-12T12:03:00.957Z,990.07
2018-11-12T12:04:01.083Z,990.04
2018-11-12T12:05:01.313Z,990.04
2018-11-12T12:06:01.539Z,990.03
2018-11-12T12:07:01.780Z,989.99
2018-11-12T12:08:02.009Z,989.96
2018-11-12T12:09:02.264Z,990.02
2018-11-12T12:10:02.463Z,989.99
2018-11-12T12:11:02.693Z,989.99
2018-11-12T12:12:02.923Z,990.04
2018-11-12T12:13:03.162Z,990.02
2018-11-12T12:14:03.396Z,990.02
2018-11-12T12:15:03.609Z,990.01
2018-11-12T12:16:03.838Z,990.01
2018-11-12T12:17:04.065Z,990.03
2018-11-12T12:18:04.298Z,990.03
2018-11-12T12:19:04.526Z,990.02
2018-11-12T12:20:04.758Z,990.02
2018-11-12T12:21:05.019Z,990.01
2018-11-12T12:22:05.219Z,990.07
2018-11-12T12:23:05.441Z,990.08
2018-11-12T12:24:05.667Z,990.07
2018-11-12T12:25:05.966Z,990.03
2018-11-12T12:26:06.130Z,990.09
2018-11-12T12:27:06.358Z,990.09
2018-11-12T12:28:06.587Z,990.09
2018-11-12T12:29:06.815Z,990.15
2018-11-12T12:30:07.046Z,990.09
2018-11-12T12:31:07.274Z,990.08